createdAt,value
2022-12-12T00:00:42.841Z,0.67
2022-12-12T00:03:45.678Z,0.90
2022-12-12T00:06:47.702Z,0.93
2022-12-12T00:09:50.010Z,0.90
2022-12-12T00:12:51.845Z,0.90
2022-12-12T00:15:53.800Z,0.70
2022-12-12T00:18:55.895Z,1.13
2022-12-12T00:21:58.203Z,1.00
2022-12-12T00:25:00.147Z,1.13
2022-12-12T00:28:03.469Z,1.00
2022-12-12T00:31:06.022Z,0.70
2022-12-12T00:34:08.056Z,1.07
2022-12-12T00:37:09.995Z,0.80
2022-12-12T00:40:12.885Z,0.60
2022-12-12T00:43:15.104Z,1.00
2022-12-12T00:46:22.688Z,0.83
2022-12-12T00:49:24.645Z,0.90
2022-12-12T00:52:27.150Z,1.00
2022-12-12T00:55:29.116Z,1.30
2022-12-12T00:58:32.343Z,0.83
2022-12-12T01:01:35.418Z,0.90
2022-12-12T01:04:37.483Z,1.20
2022-12-12T01:07:39.769Z,0.80
2022-12-12T01:10:41.883Z,1.10
2022-12-12T01:13:44.137Z,1.07
2022-12-12T01:16:46.128Z,1.27
2022-12-12T01:19:48.081Z,0.77
2022-12-12T01:22:50.517Z,1.10
2022-12-12T01:26:00.834Z,1.17
2022-12-12T01:29:02.731Z,0.97
2022-12-12T01:32:04.918Z,0.83
2022-12-12T01:35:09.222Z,0.80
2022-12-12T01:38:11.106Z,0.87
2022-12-12T01:41:13.970Z,1.10
2022-12-12T01:44:45.407Z,1.30
2022-12-12T01:47:47.290Z,0.93
2022-12-12T01:50:49.777Z,0.80
2022-12-12T01:53:54.205Z,1.20
2022-12-12T01:56:57.491Z,1.00
2022-12-12T02:00:00.517Z,0.83
2022-12-12T02:03:02.455Z,1.13
2022-12-12T02:06:07.081Z,1.10
2022-12-12T02:09:12.421Z,1.20
2022-12-12T02:12:15.316Z,0.93
2022-12-12T02:15:17.353Z,1.10
2022-12-12T02:18:22.409Z,1.10
2022-12-12T02:21:40.696Z,0.80
2022-12-12T02:24:42.923Z,1.13
2022-12-12T02:28:09.428Z,0.90
2022-12-12T02:31:23.340Z,1.23
2022-12-12T02:34:34.193Z,0.87
2022-12-12T02:37:42.755Z,1.10
2022-12-12T02:40:53.759Z,1.30
2022-12-12T02:44:01.714Z,1.07
2022-12-12T02:47:11.712Z,1.37
2022-12-12T02:50:20.896Z,1.07
2022-12-12T02:53:24.213Z,1.40
2022-12-12T02:56:46.149Z,1.20
2022-12-12T03:00:05.426Z,1.60
2022-12-12T03:03:44.717Z,1.40
2022-12-12T03:07:22.329Z,1.10
2022-12-12T03:10:30.071Z,1.03
2022-12-12T03:13:52.168Z,1.03
2022-12-12T03:17:01.517Z,1.23
2022-12-12T03:20:27.803Z,1.30
2022-12-12T03:23:38.126Z,1.03
2022-12-12T03:27:00.308Z,0.93
2022-12-12T03:30:06.999Z,1.10
2022-12-12T03:33:17.873Z,0.93
2022-12-12T03:36:22.658Z,1.10
2022-12-12T03:39:30.719Z,1.50
2022-12-12T03:42:44.819Z,1.40
2022-12-12T03:45:57.363Z,1.43
2022-12-12T03:49:21.520Z,1.07
2022-12-12T03:52:32.854Z,1.57
2022-12-12T03:55:58.303Z,1.40
2022-12-12T03:59:05.257Z,1.57
2022-12-12T04:02:27.954Z,0.93
2022-12-12T04:06:15.814Z,1.17
2022-12-12T04:09:38.132Z,1.77
2022-12-12T04:13:15.038Z,1.50
2022-12-12T04:16:26.093Z,1.33
2022-12-12T04:19:57.099Z,1.40
2022-12-12T04:23:17.224Z,1.40
2022-12-12T04:26:46.847Z,1.20
2022-12-12T04:30:04.392Z,1.60
2022-12-12T04:33:11.325Z,1.30
2022-12-12T04:36:13.898Z,1.40
2022-12-12T04:39:17.634Z,1.47
2022-12-12T04:42:23.521Z,1.67
2022-12-12T04:45:39.112Z,1.40
2022-12-12T04:48:44.185Z,1.40
2022-12-12T04:51:50.047Z,1.10
2022-12-12T04:54:55.967Z,1.27
2022-12-12T04:57:58.581Z,1.60
2022-12-12T05:01:09.657Z,1.40
2022-12-12T05:04:37.997Z,1.20
2022-12-12T05:07:42.512Z,1.67
2022-12-12T05:10:45.633Z,1.50
2022-12-12T05:13:47.629Z,1.30
2022-12-12T05:16:54.298Z,1.50
2022-12-12T05:19:56.841Z,1.77
2022-12-12T05:22:59.003Z,1.20
2022-12-12T05:26:29.508Z,1.60
2022-12-12T05:29:32.282Z,1.30
2022-12-12T05:32:34.351Z,1.40
2022-12-12T05:35:37.088Z,1.80
2022-12-12T05:38:39.718Z,1.50
2022-12-12T05:41:41.687Z,1.90
2022-12-12T05:44:44.778Z,1.50
2022-12-12T05:47:46.707Z,1.87
2022-12-12T05:50:48.587Z,1.93
2022-12-12T05:53:50.527Z,1.77
2022-12-12T05:56:55.511Z,2.03
2022-12-12T05:59:57.387Z,2.33
2022-12-12T06:02:59.337Z,1.90
2022-12-12T06:06:01.176Z,2.20
2022-12-12T06:09:03.308Z,2.27
2022-12-12T06:12:05.609Z,2.03
2022-12-12T06:15:08.448Z,1.83
2022-12-12T06:18:19.078Z,2.90
2022-12-12T06:21:24.801Z,1.83
2022-12-12T06:24:27.247Z,2.40
2022-12-12T06:27:29.861Z,3.00
2022-12-12T06:30:31.957Z,2.63
2022-12-12T06:33:35.867Z,2.30
2022-12-12T06:36:37.793Z,2.30
2022-12-12T06:39:39.760Z,2.50
2022-12-12T06:42:46.408Z,1.53
2022-12-12T06:45:50.844Z,2.03
2022-12-12T06:48:56.205Z,2.23
2022-12-12T06:51:58.527Z,2.13
2022-12-12T06:55:00.479Z,1.97
2022-12-12T06:58:02.361Z,2.50
2022-12-12T07:01:06.644Z,2.43
2022-12-12T07:04:08.966Z,2.37
2022-12-12T07:07:10.879Z,1.87
2022-12-12T07:10:12.904Z,2.20
2022-12-12T07:13:14.829Z,1.83
2022-12-12T07:16:17.389Z,2.50
2022-12-12T07:19:19.508Z,2.40
2022-12-12T07:22:21.746Z,1.73
2022-12-12T07:25:23.753Z,2.10
2022-12-12T07:28:25.795Z,2.20
2022-12-12T07:31:29.313Z,2.10
2022-12-12T07:34:31.985Z,2.00
2022-12-12T07:37:33.867Z,2.43
2022-12-12T07:40:36.317Z,2.60
2022-12-12T07:43:43.363Z,2.10
2022-12-12T07:46:47.033Z,2.57
2022-12-12T07:49:48.986Z,2.33
2022-12-12T07:52:50.949Z,2.37
2022-12-12T07:55:52.871Z,2.90
2022-12-12T07:58:55.791Z,2.73
2022-12-12T08:01:57.739Z,2.57
2022-12-12T08:05:00.003Z,2.87
2022-12-12T08:08:02.227Z,2.30
2022-12-12T08:11:10.350Z,2.13
2022-12-12T08:14:13.239Z,2.30
2022-12-12T08:17:15.441Z,3.43
2022-12-12T08:20:17.727Z,2.40
2022-12-12T08:23:20.156Z,3.30
2022-12-12T08:26:22.121Z,3.57
2022-12-12T08:29:24.427Z,2.77
2022-12-12T08:32:26.339Z,2.97
2022-12-12T08:35:30.439Z,3.10
2022-12-12T08:38:32.324Z,3.20
2022-12-12T08:41:36.091Z,3.10
2022-12-12T08:44:37.983Z,2.97
2022-12-12T08:47:40.060Z,2.97
2022-12-12T08:50:41.894Z,2.90
2022-12-12T08:53:45.980Z,3.17
2022-12-12T08:56:48.081Z,2.77
2022-12-12T08:59:50.052Z,2.80
2022-12-12T09:02:52.522Z,3.47
2022-12-12T09:05:54.982Z,2.93
2022-12-12T09:08:57.685Z,2.50
2022-12-12T09:12:00.191Z,2.97
2022-12-12T09:15:02.084Z,2.63
2022-12-12T09:18:04.691Z,2.43
2022-12-12T09:21:06.965Z,2.47
2022-12-12T09:24:09.443Z,2.53
2022-12-12T09:27:11.427Z,3.03
2022-12-12T09:30:14.029Z,2.97
2022-12-12T09:33:16.803Z,2.93
2022-12-12T09:36:20.308Z,2.97
2022-12-12T09:39:22.146Z,2.77
2022-12-12T09:42:29.064Z,3.43
2022-12-12T09:45:34.779Z,2.53
2022-12-12T09:48:43.883Z,2.97
2022-12-12T09:51:48.507Z,3.10
2022-12-12T09:54:50.412Z,2.70
2022-12-12T09:58:12.553Z,2.53
2022-12-12T10:01:58.979Z,2.67
2022-12-12T10:05:03.563Z,3.17
2022-12-12T10:08:12.335Z,3.23
2022-12-12T10:11:36.449Z,2.93
2022-12-12T10:14:39.966Z,2.70
2022-12-12T10:17:44.414Z,3.20
2022-12-12T10:20:52.094Z,3.20
2022-12-12T10:24:33.761Z,3.30
2022-12-12T10:27:35.763Z,2.73
2022-12-12T10:30:50.975Z,2.60
2022-12-12T10:33:59.417Z,3.27
2022-12-12T10:37:07.060Z,3.07
2022-12-12T10:40:29.496Z,2.47
2022-12-12T10:43:46.819Z,3.40
2022-12-12T10:47:01.074Z,3.00
2022-12-12T10:50:19.291Z,2.60
2022-12-12T10:53:22.866Z,3.43
2022-12-12T10:56:27.516Z,3.23
2022-12-12T10:59:29.516Z,2.70
2022-12-12T11:02:41.026Z,3.20
2022-12-12T11:05:43.679Z,2.87
2022-12-12T11:08:59.945Z,2.33
2022-12-12T11:12:14.152Z,3.00
2022-12-12T11:15:17.456Z,3.03
2022-12-12T11:18:22.173Z,2.50
2022-12-12T11:21:24.797Z,2.50
2022-12-12T11:24:31.912Z,2.87
2022-12-12T11:27:38.834Z,2.27
2022-12-12T11:30:42.973Z,2.63
2022-12-12T11:33:54.824Z,2.10
2022-12-12T11:36:59.021Z,3.17
2022-12-12T11:40:01.079Z,2.57
2022-12-12T11:43:11.101Z,2.50
2022-12-12T11:46:16.039Z,2.50
2022-12-12T11:49:20.518Z,3.77
2022-12-12T11:52:27.143Z,2.83
2022-12-12T11:56:14.483Z,2.53
2022-12-12T11:59:26.705Z,3.30
2022-12-12T12:02:40.954Z,2.80
2022-12-12T12:06:22.957Z,3.00
2022-12-12T12:09:31.881Z,3.77
2022-12-12T12:12:55.734Z,4.67
2022-12-12T12:16:13.197Z,3.40
2022-12-12T12:19:27.096Z,3.63
2022-12-12T12:22:48.735Z,2.73
2022-12-12T12:25:53.408Z,2.43
2022-12-12T12:29:21.041Z,2.10
2022-12-12T12:32:52.390Z,2.47
2022-12-12T12:35:57.878Z,2.60
2022-12-12T12:39:21.661Z,2.67
2022-12-12T12:42:29.281Z,2.90
2022-12-12T12:45:53.743Z,2.53
2022-12-12T12:49:08.779Z,3.20
2022-12-12T12:52:25.464Z,3.03
2022-12-12T12:55:32.687Z,3.23
2022-12-12T12:58:42.014Z,3.67
2022-12-12T13:01:47.531Z,3.13
2022-12-12T13:05:07.317Z,2.37
2022-12-12T13:08:29.202Z,2.63
2022-12-12T13:11:40.433Z,3.47
2022-12-12T13:14:55.987Z,2.83
2022-12-12T13:18:04.672Z,3.23
2022-12-12T13:21:32.785Z,3.23
2022-12-12T13:25:01.018Z,3.90
2022-12-12T13:28:08.555Z,3.50
2022-12-12T13:31:29.136Z,3.40
2022-12-12T13:34:32.723Z,3.43
2022-12-12T13:37:39.671Z,3.60
2022-12-12T13:40:43.294Z,10.50
2022-12-12T13:43:49.753Z,5.00
2022-12-12T13:46:51.871Z,5.33
2022-12-12T13:49:59.251Z,5.73
2022-12-12T13:53:21.916Z,5.17
2022-12-12T13:56:32.716Z,5.73
2022-12-12T13:59:54.579Z,3.63
2022-12-12T14:03:11.689Z,2.73
2022-12-12T14:06:19.888Z,2.70
2022-12-12T14:09:27.699Z,3.23
2022-12-12T14:12:38.441Z,2.50
2022-12-12T14:15:41.547Z,2.80
2022-12-12T14:18:49.534Z,3.60
2022-12-12T14:21:51.733Z,3.77
2022-12-12T14:25:19.481Z,3.10
2022-12-12T14:28:28.777Z,3.00
2022-12-12T14:31:35.098Z,3.10
2022-12-12T14:34:55.361Z,3.17
2022-12-12T14:38:27.744Z,3.40
2022-12-12T14:41:36.000Z,3.23
2022-12-12T14:44:47.895Z,3.57
2022-12-12T14:48:17.287Z,3.70
2022-12-12T14:51:29.310Z,3.63
2022-12-12T14:54:32.583Z,3.30
2022-12-12T14:57:35.693Z,3.53
2022-12-12T15:00:46.684Z,3.37
2022-12-12T15:03:50.400Z,2.77
2022-12-12T15:06:54.187Z,2.70
2022-12-12T15:09:56.835Z,2.80
2022-12-12T15:12:58.832Z,2.83
2022-12-12T15:16:00.795Z,3.30
2022-12-12T15:19:03.089Z,2.80
2022-12-12T15:22:11.926Z,3.20
2022-12-12T15:25:20.486Z,4.37
2022-12-12T15:28:25.021Z,3.83
2022-12-12T15:31:27.010Z,2.73
2022-12-12T15:34:40.454Z,2.90
2022-12-12T15:37:42.875Z,2.53
2022-12-12T15:40:55.387Z,3.27
2022-12-12T15:43:57.771Z,3.93
2022-12-12T15:47:00.184Z,4.93
2022-12-12T15:50:30.477Z,4.73
2022-12-12T15:53:41.870Z,3.80
2022-12-12T15:56:49.969Z,3.10
2022-12-12T15:59:57.767Z,3.47
2022-12-12T16:03:03.558Z,2.97
2022-12-12T16:06:16.783Z,3.40
2022-12-12T16:09:21.301Z,2.70
2022-12-12T16:12:59.388Z,2.67
2022-12-12T16:16:02.183Z,2.83
2022-12-12T16:19:05.799Z,2.60
2022-12-12T16:22:13.784Z,2.50
2022-12-12T16:25:33.494Z,2.40
2022-12-12T16:28:35.381Z,2.23
2022-12-12T16:31:37.347Z,2.20
2022-12-12T16:34:39.264Z,1.97
2022-12-12T16:37:41.762Z,2.27
2022-12-12T16:40:45.863Z,2.50
2022-12-12T16:43:47.808Z,3.70
2022-12-12T16:46:49.626Z,2.20
2022-12-12T16:49:52.503Z,2.67
2022-12-12T16:52:54.403Z,2.37
2022-12-12T16:55:56.601Z,2.43
2022-12-12T16:58:58.898Z,2.60
2022-12-12T17:02:00.923Z,2.13
2022-12-12T17:05:05.008Z,2.43
2022-12-12T17:08:07.336Z,2.90
2022-12-12T17:11:11.189Z,2.50
2022-12-12T17:14:18.347Z,3.03
2022-12-12T17:17:20.160Z,3.20
2022-12-12T17:20:23.368Z,2.73
2022-12-12T17:23:28.093Z,2.77
2022-12-12T17:26:30.323Z,2.90
2022-12-12T17:29:32.287Z,2.83
2022-12-12T17:32:35.502Z,2.50
2022-12-12T17:35:38.452Z,2.53
2022-12-12T17:38:41.770Z,2.87
2022-12-12T17:41:43.783Z,3.53
2022-12-12T17:44:46.134Z,3.07
2022-12-12T17:47:48.027Z,2.50
2022-12-12T17:50:57.811Z,2.70
2022-12-12T17:54:00.640Z,2.60
2022-12-12T17:57:02.775Z,2.80
2022-12-12T18:00:07.365Z,2.80
2022-12-12T18:03:09.247Z,2.87
2022-12-12T18:06:11.876Z,2.73
2022-12-12T18:09:14.272Z,2.83
2022-12-12T18:12:17.587Z,3.10
2022-12-12T18:15:19.689Z,3.33
2022-12-12T18:18:21.615Z,3.23
2022-12-12T18:21:59.272Z,2.47
2022-12-12T18:24:49.953Z,2.97
2022-12-12T18:27:52.078Z,3.20
2022-12-12T18:30:54.027Z,3.63
2022-12-12T18:33:57.014Z,3.27
2022-12-12T18:36:58.869Z,2.80
2022-12-12T18:40:00.833Z,3.17
2022-12-12T18:43:02.705Z,2.73
2022-12-12T18:46:08.771Z,3.67
2022-12-12T18:49:15.721Z,3.43
2022-12-12T18:52:18.803Z,3.40
2022-12-12T18:55:21.546Z,2.67
2022-12-12T18:58:24.029Z,2.77
2022-12-12T19:01:28.862Z,3.20
2022-12-12T19:04:30.959Z,4.03
2022-12-12T19:07:33.206Z,2.47
2022-12-12T19:10:38.906Z,4.53
2022-12-12T19:13:41.455Z,4.57
2022-12-12T19:16:44.530Z,4.03
2022-12-12T19:19:46.593Z,3.50
2022-12-12T19:22:48.632Z,3.40
2022-12-12T19:25:51.592Z,3.07
2022-12-12T19:29:06.558Z,4.10
2022-12-12T19:32:08.941Z,3.13
2022-12-12T19:35:11.436Z,3.40
2022-12-12T19:38:13.378Z,3.13
2022-12-12T19:41:17.749Z,3.30
2022-12-12T19:44:19.782Z,3.93
2022-12-12T19:47:21.762Z,2.67
2022-12-12T19:50:23.701Z,3.00
2022-12-12T19:53:25.723Z,3.10
2022-12-12T19:56:36.135Z,2.57
2022-12-12T19:59:38.487Z,2.87
2022-12-12T20:02:44.960Z,2.90
2022-12-12T20:05:52.013Z,3.10
2022-12-12T20:09:01.010Z,3.30
2022-12-12T20:12:03.804Z,3.80
2022-12-12T20:15:06.429Z,4.47
2022-12-12T20:18:16.149Z,7.67
2022-12-12T20:21:59.013Z,5.27
2022-12-12T20:24:51.092Z,3.83
2022-12-12T20:27:58.337Z,5.50
2022-12-12T20:31:08.910Z,4.03
2022-12-12T20:34:13.064Z,3.97
2022-12-12T20:37:19.801Z,2.43
2022-12-12T20:40:23.777Z,3.93
2022-12-12T20:43:26.794Z,4.87
2022-12-12T20:46:32.085Z,5.73
2022-12-12T20:49:36.690Z,4.30
2022-12-12T20:52:40.022Z,7.37
2022-12-12T20:55:41.966Z,7.30
2022-12-12T20:58:44.746Z,4.77
2022-12-12T21:01:47.915Z,6.27
2022-12-12T21:04:50.272Z,4.63
2022-12-12T21:07:53.030Z,3.70
2022-12-12T21:10:57.033Z,3.13
2022-12-12T21:14:00.516Z,2.60
2022-12-12T21:17:02.382Z,3.03
2022-12-12T21:20:06.847Z,3.23
2022-12-12T21:23:09.108Z,3.27
2022-12-12T21:26:19.707Z,3.60
2022-12-12T21:29:22.510Z,3.87
2022-12-12T21:32:24.532Z,3.30
2022-12-12T21:35:26.773Z,3.47
2022-12-12T21:38:28.838Z,3.07
2022-12-12T21:41:31.327Z,4.07
2022-12-12T21:44:33.658Z,3.23
2022-12-12T21:47:37.707Z,3.53
2022-12-12T21:50:39.609Z,4.60
2022-12-12T21:53:41.928Z,3.10
2022-12-12T21:56:44.619Z,2.83
2022-12-12T21:59:49.143Z,2.87
2022-12-12T22:02:51.106Z,3.20
2022-12-12T22:05:53.107Z,2.40
2022-12-12T22:08:56.701Z,3.43
2022-12-12T22:12:03.401Z,2.93
2022-12-12T22:15:06.538Z,2.90
2022-12-12T22:18:08.481Z,3.10
2022-12-12T22:21:14.997Z,2.33
2022-12-12T22:24:17.741Z,2.80
2022-12-12T22:27:19.699Z,3.60
2022-12-12T22:30:21.612Z,3.17
2022-12-12T22:33:23.621Z,3.50
2022-12-12T22:36:33.643Z,4.00
2022-12-12T22:39:35.622Z,2.57
2022-12-12T22:42:37.495Z,3.10
2022-12-12T22:45:47.072Z,2.53
2022-12-12T22:48:50.064Z,3.27
2022-12-12T22:51:52.607Z,3.50
2022-12-12T22:54:55.305Z,3.40
2022-12-12T22:57:58.625Z,2.97
2022-12-12T23:01:11.658Z,3.50
2022-12-12T23:04:14.425Z,3.07
2022-12-12T23:07:16.466Z,3.13
2022-12-12T23:10:18.468Z,3.60
2022-12-12T23:13:20.486Z,3.50
2022-12-12T23:16:25.421Z,2.03
2022-12-12T23:19:28.959Z,2.30
2022-12-12T23:22:31.214Z,2.20
2022-12-12T23:25:33.055Z,2.10
2022-12-12T23:28:36.736Z,2.50
2022-12-12T23:31:39.332Z,2.30
2022-12-12T23:34:41.611Z,2.83
2022-12-12T23:37:43.528Z,2.73
2022-12-12T23:40:46.073Z,2.67
2022-12-12T23:43:50.698Z,2.50
2022-12-12T23:46:52.929Z,2.33
2022-12-12T23:49:54.799Z,2.43
2022-12-12T23:52:56.848Z,2.70
2022-12-12T23:56:04.022Z,1.97
2022-12-12T23:59:06.549Z,2.73
